sensor_id;sensor_type;location;lat;lon;timestamp;temperature;humidity
5881;DHT22;2966;52.598;10.928;2023-04-25T00:00:06;7.60;99.90
5881;DHT22;2966;52.598;10.928;2023-04-25T00:02:34;7.60;99.90
5881;DHT22;2966;52.598;10.928;2023-04-25T00:05:01;7.60;99.90
5881;DHT22;2966;52.598;10.928;2023-04-25T00:07:28;7.50;99.90
5881;DHT22;2966;52.598;10.928;2023-04-25T00:09:58;7.50;99.90
5881;DHT22;2966;52.598;10.928;2023-04-25T00:12:25;7.40;99.90
5881;DHT22;2966;52.598;10.928;2023-04-25T00:14:53;7.30;99.90
5881;DHT22;2966;52.598;10.928;2023-04-25T00:17:22;7.30;99.90
5881;DHT22;2966;52.598;10.928;2023-04-25T00:19:49;7.20;99.90
5881;DHT22;2966;52.598;10.928;2023-04-25T00:22:16;7.20;99.90
5881;DHT22;2966;52.598;10.928;2023-04-25T00:24:43;7.20;99.90
5881;DHT22;2966;52.598;10.928;2023-04-25T00:27:11;7.20;99.90
5881;DHT22;2966;52.598;10.928;2023-04-25T00:29:37;7.20;99.90
5881;DHT22;2966;52.598;10.928;2023-04-25T00:32:04;7.20;99.90
5881;DHT22;2966;52.598;10.928;2023-04-25T00:34:31;7.10;99.90
5881;DHT22;2966;52.598;10.928;2023-04-25T00:36:58;7.10;99.90
5881;DHT22;2966;52.598;10.928;2023-04-25T00:39:26;7.00;99.90
5881;DHT22;2966;52.598;10.928;2023-04-25T00:41:54;7.00;99.90
5881;DHT22;2966;52.598;10.928;2023-04-25T00:44:22;6.90;99.90
5881;DHT22;2966;52.598;10.928;2023-04-25T00:46:50;6.90;99.90
5881;DHT22;2966;52.598;10.928;2023-04-25T00:49:17;6.90;99.90
5881;DHT22;2966;52.598;10.928;2023-04-25T00:51:44;6.90;99.90
5881;DHT22;2966;52.598;10.928;2023-04-25T00:54:11;6.90;99.90
5881;DHT22;2966;52.598;10.928;2023-04-25T00:56:38;6.80;99.90
5881;DHT22;2966;52.598;10.928;2023-04-25T00:59:05;6.80;99.90
5881;DHT22;2966;52.598;10.928;2023-04-25T01:01:33;6.80;99.90
5881;DHT22;2966;52.598;10.928;2023-04-25T01:04:01;6.80;99.90
5881;DHT22;2966;52.598;10.928;2023-04-25T01:06:28;6.90;99.90
5881;DHT22;2966;52.598;10.928;2023-04-25T01:08:54;6.90;99.90
5881;DHT22;2966;52.598;10.928;2023-04-25T01:11:23;7.00;99.90
5881;DHT22;2966;52.598;10.928;2023-04-25T01:13:49;7.00;99.90
5881;DHT22;2966;52.598;10.928;2023-04-25T01:16:16;7.00;99.90
5881;DHT22;2966;52.598;10.928;2023-04-25T01:18:45;7.00;99.90
5881;DHT22;2966;52.598;10.928;2023-04-25T01:21:14;7.00;99.90
5881;DHT22;2966;52.598;10.928;2023-04-25T01:23:42;7.00;99.90
5881;DHT22;2966;52.598;10.928;2023-04-25T01:26:10;7.00;99.90
5881;DHT22;2966;52.598;10.928;2023-04-25T01:28:37;7.00;99.90
5881;DHT22;2966;52.598;10.928;2023-04-25T01:31:06;7.00;99.90
5881;DHT22;2966;52.598;10.928;2023-04-25T01:33:33;7.00;99.90
5881;DHT22;2966;52.598;10.928;2023-04-25T01:36:00;7.00;99.90
5881;DHT22;2966;52.598;10.928;2023-04-25T01:38:28;7.10;99.90
5881;DHT22;2966;52.598;10.928;2023-04-25T01:40:56;7.10;99.90
5881;DHT22;2966;52.598;10.928;2023-04-25T01:43:23;7.10;99.90
5881;DHT22;2966;52.598;10.928;2023-04-25T01:45:50;7.10;99.90
5881;DHT22;2966;52.598;10.928;2023-04-25T01:48:17;7.10;99.90
5881;DHT22;2966;52.598;10.928;2023-04-25T01:50:44;7.20;99.90
5881;DHT22;2966;52.598;10.928;2023-04-25T01:53:13;7.20;99.90
5881;DHT22;2966;52.598;10.928;2023-04-25T01:55:41;7.20;99.90
5881;DHT22;2966;52.598;10.928;2023-04-25T01:58:08;7.10;99.90
5881;DHT22;2966;52.598;10.928;2023-04-25T02:00:38;7.10;99.90
5881;DHT22;2966;52.598;10.928;2023-04-25T02:03:06;7.10;99.90
5881;DHT22;2966;52.598;10.928;2023-04-25T02:05:37;7.10;99.90
5881;DHT22;2966;52.598;10.928;2023-04-25T02:08:05;7.10;99.90
5881;DHT22;2966;52.598;10.928;2023-04-25T02:10:32;7.10;99.90
5881;DHT22;2966;52.598;10.928;2023-04-25T02:13:01;7.10;99.90
5881;DHT22;2966;52.598;10.928;2023-04-25T02:15:27;7.10;99.90
5881;DHT22;2966;52.598;10.928;2023-04-25T02:17:54;7.20;99.90
5881;DHT22;2966;52.598;10.928;2023-04-25T02:20:21;7.10;99.90
5881;DHT22;2966;52.598;10.928;2023-04-25T02:22:49;7.20;99.90
5881;DHT22;2966;52.598;10.928;2023-04-25T02:25:16;7.20;99.90
5881;DHT22;2966;52.598;10.928;2023-04-25T02:27:43;7.20;99.90
5881;DHT22;2966;52.598;10.928;2023-04-25T02:30:11;7.20;99.90
5881;DHT22;2966;52.598;10.928;2023-04-25T02:32:38;7.20;99.90
5881;DHT22;2966;52.598;10.928;2023-04-25T02:35:05;7.10;99.90
5881;DHT22;2966;52.598;10.928;2023-04-25T02:37:33;7.10;99.90
5881;DHT22;2966;52.598;10.928;2023-04-25T02:40:01;7.10;99.90
5881;DHT22;2966;52.598;10.928;2023-04-25T02:42:29;7.10;99.90
5881;DHT22;2966;52.598;10.928;2023-04-25T02:44:59;7.10;99.90
5881;DHT22;2966;52.598;10.928;2023-04-25T02:47:27;6.90;99.90
5881;DHT22;2966;52.598;10.928;2023-04-25T02:49:53;6.90;99.90
5881;DHT22;2966;52.598;10.928;2023-04-25T02:52:29;6.90;99.90
5881;DHT22;2966;52.598;10.928;2023-04-25T02:54:56;6.90;99.90
5881;DHT22;2966;52.598;10.928;2023-04-25T02:57:23;6.90;99.90
5881;DHT22;2966;52.598;10.928;2023-04-25T02:59:49;6.90;99.90
5881;DHT22;2966;52.598;10.928;2023-04-25T03:02:16;6.80;99.90
5881;DHT22;2966;52.598;10.928;2023-04-25T03:04:44;6.80;99.90
5881;DHT22;2966;52.598;10.928;2023-04-25T03:07:11;6.70;99.90
5881;DHT22;2966;52.598;10.928;2023-04-25T03:09:38;6.70;99.90
5881;DHT22;2966;52.598;10.928;2023-04-25T03:12:05;6.70;99.90
5881;DHT22;2966;52.598;10.928;2023-04-25T03:14:35;6.70;99.90
5881;DHT22;2966;52.598;10.928;2023-04-25T03:17:02;6.60;99.90
5881;DHT22;2966;52.598;10.928;2023-04-25T03:19:28;6.60;99.90
5881;DHT22;2966;52.598;10.928;2023-04-25T03:21:57;6.50;99.90
5881;DHT22;2966;52.598;10.928;2023-04-25T03:24:23;6.50;99.90
5881;DHT22;2966;52.598;10.928;2023-04-25T03:26:51;6.50;99.90
5881;DHT22;2966;52.598;10.928;2023-04-25T03:29:18;6.50;99.90
5881;DHT22;2966;52.598;10.928;2023-04-25T03:31:45;6.50;99.90
5881;DHT22;2966;52.598;10.928;2023-04-25T03:34:11;6.50;99.90
5881;DHT22;2966;52.598;10.928;2023-04-25T03:36:40;6.40;99.90
5881;DHT22;2966;52.598;10.928;2023-04-25T03:39:08;6.40;99.90
5881;DHT22;2966;52.598;10.928;2023-04-25T03:41:34;6.40;99.90
5881;DHT22;2966;52.598;10.928;2023-04-25T03:44:01;6.40;99.90
5881;DHT22;2966;52.598;10.928;2023-04-25T03:46:27;6.30;99.90
5881;DHT22;2966;52.598;10.928;2023-04-25T03:48:54;6.30;99.90
5881;DHT22;2966;52.598;10.928;2023-04-25T03:51:21;6.30;99.90
5881;DHT22;2966;52.598;10.928;2023-04-25T03:53:49;6.30;99.90
5881;DHT22;2966;52.598;10.928;2023-04-25T03:56:19;6.20;99.90
5881;DHT22;2966;52.598;10.928;2023-04-25T03:58:48;6.20;99.90
5881;DHT22;2966;52.598;10.928;2023-04-25T04:01:15;6.10;99.90
5881;DHT22;2966;52.598;10.928;2023-04-25T04:03:42;6.10;99.90
5881;DHT22;2966;52.598;10.928;2023-04-25T04:06:09;6.10;99.90
5881;DHT22;2966;52.598;10.928;2023-04-25T04:08:36;6.10;99.90
5881;DHT22;2966;52.598;10.928;2023-04-25T04:11:02;6.00;99.90
5881;DHT22;2966;52.598;10.928;2023-04-25T04:13:30;5.90;99.90
5881;DHT22;2966;52.598;10.928;2023-04-25T04:15:57;5.70;99.90
5881;DHT22;2966;52.598;10.928;2023-04-25T04:18:24;5.60;99.90
5881;DHT22;2966;52.598;10.928;2023-04-25T04:20:51;5.60;99.90
5881;DHT22;2966;52.598;10.928;2023-04-25T04:23:19;5.60;99.90
5881;DHT22;2966;52.598;10.928;2023-04-25T04:25:48;5.60;99.90
5881;DHT22;2966;52.598;10.928;2023-04-25T04:28:15;5.70;99.90
5881;DHT22;2966;52.598;10.928;2023-04-25T04:30:44;5.70;99.90
5881;DHT22;2966;52.598;10.928;2023-04-25T04:33:12;5.70;99.90
5881;DHT22;2966;52.598;10.928;2023-04-25T04:35:40;5.70;99.90
5881;DHT22;2966;52.598;10.928;2023-04-25T04:38:08;5.70;99.90
5881;DHT22;2966;52.598;10.928;2023-04-25T04:40:36;5.80;99.90
5881;DHT22;2966;52.598;10.928;2023-04-25T04:43:05;5.80;99.90
5881;DHT22;2966;52.598;10.928;2023-04-25T04:45:34;5.80;99.90
5881;DHT22;2966;52.598;10.928;2023-04-25T04:48:04;5.80;99.90
5881;DHT22;2966;52.598;10.928;2023-04-25T04:50:31;5.80;99.90
5881;DHT22;2966;52.598;10.928;2023-04-25T04:52:58;5.90;99.90
5881;DHT22;2966;52.598;10.928;2023-04-25T04:55:25;5.90;99.90
5881;DHT22;2966;52.598;10.928;2023-04-25T04:57:52;5.90;99.90
5881;DHT22;2966;52.598;10.928;2023-04-25T05:00:19;5.90;99.90
5881;DHT22;2966;52.598;10.928;2023-04-25T05:02:47;5.90;99.90
5881;DHT22;2966;52.598;10.928;2023-04-25T05:05:15;5.90;99.90
5881;DHT22;2966;52.598;10.928;2023-04-25T05:07:42;5.90;99.90
5881;DHT22;2966;52.598;10.928;2023-04-25T05:10:09;5.90;99.90
5881;DHT22;2966;52.598;10.928;2023-04-25T05:12:36;6.00;99.90
5881;DHT22;2966;52.598;10.928;2023-04-25T05:15:03;5.90;99.90
5881;DHT22;2966;52.598;10.928;2023-04-25T05:17:30;5.90;99.90
5881;DHT22;2966;52.598;10.928;2023-04-25T05:19:58;5.90;99.90
5881;DHT22;2966;52.598;10.928;2023-04-25T05:22:26;5.90;99.90
5881;DHT22;2966;52.598;10.928;2023-04-25T05:24:53;6.00;99.90
5881;DHT22;2966;52.598;10.928;2023-04-25T05:27:19;6.00;99.90
5881;DHT22;2966;52.598;10.928;2023-04-25T05:29:46;6.20;99.90
5881;DHT22;2966;52.598;10.928;2023-04-25T05:32:13;6.30;99.90
5881;DHT22;2966;52.598;10.928;2023-04-25T05:34:39;6.50;99.90
5881;DHT22;2966;52.598;10.928;2023-04-25T05:37:07;6.40;99.90
5881;DHT22;2966;52.598;10.928;2023-04-25T05:39:35;6.40;99.90
5881;DHT22;2966;52.598;10.928;2023-04-25T05:42:02;6.50;99.90
5881;DHT22;2966;52.598;10.928;2023-04-25T05:44:29;6.60;99.90
5881;DHT22;2966;52.598;10.928;2023-04-25T05:46:56;6.50;99.90
5881;DHT22;2966;52.598;10.928;2023-04-25T05:49:23;6.40;99.90
5881;DHT22;2966;52.598;10.928;2023-04-25T05:51:49;6.40;99.90
5881;DHT22;2966;52.598;10.928;2023-04-25T05:54:19;6.40;99.90
5881;DHT22;2966;52.598;10.928;2023-04-25T05:56:47;6.50;99.90
5881;DHT22;2966;52.598;10.928;2023-04-25T05:59:14;6.70;99.90
5881;DHT22;2966;52.598;10.928;2023-04-25T06:01:43;6.70;99.90
5881;DHT22;2966;52.598;10.928;2023-04-25T06:04:10;6.80;99.90
5881;DHT22;2966;52.598;10.928;2023-04-25T06:06:40;6.70;99.90
5881;DHT22;2966;52.598;10.928;2023-04-25T06:09:06;6.70;99.90
5881;DHT22;2966;52.598;10.928;2023-04-25T06:11:36;6.70;99.90
5881;DHT22;2966;52.598;10.928;2023-04-25T06:14:04;6.60;99.90
5881;DHT22;2966;52.598;10.928;2023-04-25T06:16:30;6.60;99.90
5881;DHT22;2966;52.598;10.928;2023-04-25T06:18:57;6.60;99.90
5881;DHT22;2966;52.598;10.928;2023-04-25T06:21:24;6.50;99.90
5881;DHT22;2966;52.598;10.928;2023-04-25T06:23:51;6.60;99.90
5881;DHT22;2966;52.598;10.928;2023-04-25T06:26:17;6.70;99.90
5881;DHT22;2966;52.598;10.928;2023-04-25T06:28:44;6.70;99.90
5881;DHT22;2966;52.598;10.928;2023-04-25T06:31:12;6.90;99.90
5881;DHT22;2966;52.598;10.928;2023-04-25T06:33:40;7.00;99.90
5881;DHT22;2966;52.598;10.928;2023-04-25T06:36:07;7.00;99.90
5881;DHT22;2966;52.598;10.928;2023-04-25T06:38:34;7.00;99.90
5881;DHT22;2966;52.598;10.928;2023-04-25T06:41:00;7.20;99.90
5881;DHT22;2966;52.598;10.928;2023-04-25T06:43:28;7.20;99.90
5881;DHT22;2966;52.598;10.928;2023-04-25T06:45:58;7.40;99.90
5881;DHT22;2966;52.598;10.928;2023-04-25T06:48:26;7.30;99.90
5881;DHT22;2966;52.598;10.928;2023-04-25T06:50:54;7.20;99.90
5881;DHT22;2966;52.598;10.928;2023-04-25T06:53:21;7.20;99.90
5881;DHT22;2966;52.598;10.928;2023-04-25T06:55:48;7.20;99.90
5881;DHT22;2966;52.598;10.928;2023-04-25T06:58:18;7.40;99.90
5881;DHT22;2966;52.598;10.928;2023-04-25T07:00:45;7.50;99.90
5881;DHT22;2966;52.598;10.928;2023-04-25T07:03:11;7.50;99.90
5881;DHT22;2966;52.598;10.928;2023-04-25T07:05:40;7.50;99.90
5881;DHT22;2966;52.598;10.928;2023-04-25T07:08:06;7.80;99.90
5881;DHT22;2966;52.598;10.928;2023-04-25T07:10:33;7.70;99.90
5881;DHT22;2966;52.598;10.928;2023-04-25T07:13:00;7.60;99.90
5881;DHT22;2966;52.598;10.928;2023-04-25T07:15:27;7.90;99.90
5881;DHT22;2966;52.598;10.928;2023-04-25T07:17:53;7.80;99.90
5881;DHT22;2966;52.598;10.928;2023-04-25T07:20:20;7.80;99.90
5881;DHT22;2966;52.598;10.928;2023-04-25T07:22:48;8.00;99.90
5881;DHT22;2966;52.598;10.928;2023-04-25T07:25:15;7.80;99.90
5881;DHT22;2966;52.598;10.928;2023-04-25T07:27:45;8.00;99.90
5881;DHT22;2966;52.598;10.928;2023-04-25T07:30:12;8.10;99.90
5881;DHT22;2966;52.598;10.928;2023-04-25T07:32:39;8.10;99.90
5881;DHT22;2966;52.598;10.928;2023-04-25T07:35:08;8.00;99.90
5881;DHT22;2966;52.598;10.928;2023-04-25T07:37:35;8.20;99.90
5881;DHT22;2966;52.598;10.928;2023-04-25T07:40:07;8.20;99.90
5881;DHT22;2966;52.598;10.928;2023-04-25T07:42:34;8.00;99.90
5881;DHT22;2966;52.598;10.928;2023-04-25T07:45:01;8.00;99.90
5881;DHT22;2966;52.598;10.928;2023-04-25T07:47:28;8.00;99.90
5881;DHT22;2966;52.598;10.928;2023-04-25T07:49:56;7.90;99.90
5881;DHT22;2966;52.598;10.928;2023-04-25T07:52:26;8.00;99.90
5881;DHT22;2966;52.598;10.928;2023-04-25T07:54:53;7.90;99.90
5881;DHT22;2966;52.598;10.928;2023-04-25T07:57:24;7.90;99.90
5881;DHT22;2966;52.598;10.928;2023-04-25T07:59:50;8.00;99.90
5881;DHT22;2966;52.598;10.928;2023-04-25T08:02:17;8.00;99.90
5881;DHT22;2966;52.598;10.928;2023-04-25T08:04:44;8.20;99.90
5881;DHT22;2966;52.598;10.928;2023-04-25T08:07:14;8.70;99.90
5881;DHT22;2966;52.598;10.928;2023-04-25T08:09:41;8.60;99.90
5881;DHT22;2966;52.598;10.928;2023-04-25T08:12:08;8.30;99.90
5881;DHT22;2966;52.598;10.928;2023-04-25T08:14:39;8.10;99.90
5881;DHT22;2966;52.598;10.928;2023-04-25T08:17:05;7.90;99.90
5881;DHT22;2966;52.598;10.928;2023-04-25T08:19:35;7.70;99.90
5881;DHT22;2966;52.598;10.928;2023-04-25T08:22:01;7.90;99.90
5881;DHT22;2966;52.598;10.928;2023-04-25T08:24:28;8.30;99.90
5881;DHT22;2966;52.598;10.928;2023-04-25T08:26:55;8.40;99.90
5881;DHT22;2966;52.598;10.928;2023-04-25T08:29:27;8.40;99.90
5881;DHT22;2966;52.598;10.928;2023-04-25T08:31:55;8.40;99.90
5881;DHT22;2966;52.598;10.928;2023-04-25T08:34:22;8.40;99.90
5881;DHT22;2966;52.598;10.928;2023-04-25T08:36:51;8.10;99.90
5881;DHT22;2966;52.598;10.928;2023-04-25T08:39:18;8.00;99.90
5881;DHT22;2966;52.598;10.928;2023-04-25T08:41:46;8.20;99.90
5881;DHT22;2966;52.598;10.928;2023-04-25T08:44:13;8.20;99.90
5881;DHT22;2966;52.598;10.928;2023-04-25T08:46:44;8.10;99.90
5881;DHT22;2966;52.598;10.928;2023-04-25T08:49:17;8.50;99.90
5881;DHT22;2966;52.598;10.928;2023-04-25T08:51:45;9.00;99.90
5881;DHT22;2966;52.598;10.928;2023-04-25T08:54:13;9.00;99.90
5881;DHT22;2966;52.598;10.928;2023-04-25T08:56:43;9.10;99.90
5881;DHT22;2966;52.598;10.928;2023-04-25T08:59:10;9.30;99.90
5881;DHT22;2966;52.598;10.928;2023-04-25T09:01:37;8.60;99.90
5881;DHT22;2966;52.598;10.928;2023-04-25T09:04:04;8.60;99.90
5881;DHT22;2966;52.598;10.928;2023-04-25T09:06:32;8.50;99.90
5881;DHT22;2966;52.598;10.928;2023-04-25T09:09:02;8.50;99.90
5881;DHT22;2966;52.598;10.928;2023-04-25T09:11:29;8.50;99.90
5881;DHT22;2966;52.598;10.928;2023-04-25T09:14:10;8.50;99.90
5881;DHT22;2966;52.598;10.928;2023-04-25T09:16:57;8.70;99.90
5881;DHT22;2966;52.598;10.928;2023-04-25T09:19:29;8.60;99.90
5881;DHT22;2966;52.598;10.928;2023-04-25T09:21:58;8.50;99.90
5881;DHT22;2966;52.598;10.928;2023-04-25T09:24:33;8.40;99.90
5881;DHT22;2966;52.598;10.928;2023-04-25T09:27:03;8.30;99.90
5881;DHT22;2966;52.598;10.928;2023-04-25T09:29:30;8.20;99.90
5881;DHT22;2966;52.598;10.928;2023-04-25T09:32:15;8.20;99.90
5881;DHT22;2966;52.598;10.928;2023-04-25T09:34:43;8.10;99.90
5881;DHT22;2966;52.598;10.928;2023-04-25T09:37:12;8.60;99.90
5881;DHT22;2966;52.598;10.928;2023-04-25T09:39:38;9.40;99.90
5881;DHT22;2966;52.598;10.928;2023-04-25T09:42:05;9.40;99.90
5881;DHT22;2966;52.598;10.928;2023-04-25T09:44:32;9.00;99.90
5881;DHT22;2966;52.598;10.928;2023-04-25T09:47:02;8.70;99.90
5881;DHT22;2966;52.598;10.928;2023-04-25T09:49:28;8.40;99.90
5881;DHT22;2966;52.598;10.928;2023-04-25T09:51:55;8.30;99.90
5881;DHT22;2966;52.598;10.928;2023-04-25T09:54:25;8.00;99.90
5881;DHT22;2966;52.598;10.928;2023-04-25T09:56:52;8.00;99.90
5881;DHT22;2966;52.598;10.928;2023-04-25T09:59:22;8.10;99.90
5881;DHT22;2966;52.598;10.928;2023-04-25T10:01:49;8.10;99.90
5881;DHT22;2966;52.598;10.928;2023-04-25T10:04:19;8.30;99.90
5881;DHT22;2966;52.598;10.928;2023-04-25T10:06:49;8.40;99.90
5881;DHT22;2966;52.598;10.928;2023-04-25T10:09:16;8.50;99.90
5881;DHT22;2966;52.598;10.928;2023-04-25T10:11:46;8.50;99.90
5881;DHT22;2966;52.598;10.928;2023-04-25T10:14:14;8.40;99.90
5881;DHT22;2966;52.598;10.928;2023-04-25T10:16:41;8.30;99.90
5881;DHT22;2966;52.598;10.928;2023-04-25T10:19:09;8.10;99.90
5881;DHT22;2966;52.598;10.928;2023-04-25T10:21:37;8.00;99.90
5881;DHT22;2966;52.598;10.928;2023-04-25T10:24:06;8.00;99.90
5881;DHT22;2966;52.598;10.928;2023-04-25T10:26:33;7.60;99.90
5881;DHT22;2966;52.598;10.928;2023-04-25T10:29:03;7.80;99.90
5881;DHT22;2966;52.598;10.928;2023-04-25T10:31:30;7.80;99.90
5881;DHT22;2966;52.598;10.928;2023-04-25T10:33:58;7.80;99.90
5881;DHT22;2966;52.598;10.928;2023-04-25T10:36:25;7.90;99.90
5881;DHT22;2966;52.598;10.928;2023-04-25T10:38:54;8.00;99.90
5881;DHT22;2966;52.598;10.928;2023-04-25T10:41:23;8.20;99.90
5881;DHT22;2966;52.598;10.928;2023-04-25T10:43:50;8.50;99.90
5881;DHT22;2966;52.598;10.928;2023-04-25T10:46:28;9.00;99.90
5881;DHT22;2966;52.598;10.928;2023-04-25T10:48:57;9.20;99.90
5881;DHT22;2966;52.598;10.928;2023-04-25T10:51:26;9.40;99.90
5881;DHT22;2966;52.598;10.928;2023-04-25T10:54:00;9.50;99.90
5881;DHT22;2966;52.598;10.928;2023-04-25T10:56:28;9.20;99.90
5881;DHT22;2966;52.598;10.928;2023-04-25T10:59:13;9.10;99.90
5881;DHT22;2966;52.598;10.928;2023-04-25T11:01:43;8.80;99.90
5881;DHT22;2966;52.598;10.928;2023-04-25T11:04:20;8.50;99.90
5881;DHT22;2966;52.598;10.928;2023-04-25T11:06:59;8.60;99.90
5881;DHT22;2966;52.598;10.928;2023-04-25T11:09:27;8.70;99.90
5881;DHT22;2966;52.598;10.928;2023-04-25T11:11:54;8.80;99.90
5881;DHT22;2966;52.598;10.928;2023-04-25T11:14:21;8.70;99.90
5881;DHT22;2966;52.598;10.928;2023-04-25T11:16:52;8.80;99.90
5881;DHT22;2966;52.598;10.928;2023-04-25T11:19:19;8.80;99.90
5881;DHT22;2966;52.598;10.928;2023-04-25T11:21:46;8.70;99.90
5881;DHT22;2966;52.598;10.928;2023-04-25T11:24:13;8.90;99.90
5881;DHT22;2966;52.598;10.928;2023-04-25T11:26:41;9.30;99.90
5881;DHT22;2966;52.598;10.928;2023-04-25T11:29:08;9.60;99.90
5881;DHT22;2966;52.598;10.928;2023-04-25T11:31:35;9.90;99.90
5881;DHT22;2966;52.598;10.928;2023-04-25T11:34:03;10.00;99.90
5881;DHT22;2966;52.598;10.928;2023-04-25T11:36:29;10.00;99.90
5881;DHT22;2966;52.598;10.928;2023-04-25T11:38:57;10.40;99.90
5881;DHT22;2966;52.598;10.928;2023-04-25T11:41:25;9.90;99.90
5881;DHT22;2966;52.598;10.928;2023-04-25T11:43:52;10.00;99.90
5881;DHT22;2966;52.598;10.928;2023-04-25T11:46:19;10.00;99.90
5881;DHT22;2966;52.598;10.928;2023-04-25T11:48:46;10.20;99.90
5881;DHT22;2966;52.598;10.928;2023-04-25T11:51:14;10.10;99.90
5881;DHT22;2966;52.598;10.928;2023-04-25T11:53:41;10.20;99.90
5881;DHT22;2966;52.598;10.928;2023-04-25T11:56:09;9.90;99.90
5881;DHT22;2966;52.598;10.928;2023-04-25T11:58:55;9.70;99.90
5881;DHT22;2966;52.598;10.928;2023-04-25T12:01:27;9.60;99.90
5881;DHT22;2966;52.598;10.928;2023-04-25T12:03:54;9.50;99.90
5881;DHT22;2966;52.598;10.928;2023-04-25T12:06:26;9.70;99.90
5881;DHT22;2966;52.598;10.928;2023-04-25T12:09:00;10.00;99.90
5881;DHT22;2966;52.598;10.928;2023-04-25T12:11:29;10.30;99.90
5881;DHT22;2966;52.598;10.928;2023-04-25T12:14:01;10.60;99.90
5881;DHT22;2966;52.598;10.928;2023-04-25T12:16:39;11.00;99.90
5881;DHT22;2966;52.598;10.928;2023-04-25T12:19:06;11.20;99.90
5881;DHT22;2966;52.598;10.928;2023-04-25T12:21:34;10.60;99.90
5881;DHT22;2966;52.598;10.928;2023-04-25T12:24:11;10.00;99.90
5881;DHT22;2966;52.598;10.928;2023-04-25T12:26:48;9.80;99.90
5881;DHT22;2966;52.598;10.928;2023-04-25T12:29:16;9.60;99.90
5881;DHT22;2966;52.598;10.928;2023-04-25T12:31:43;9.30;99.90
5881;DHT22;2966;52.598;10.928;2023-04-25T12:34:10;9.20;99.90
5881;DHT22;2966;52.598;10.928;2023-04-25T12:36:39;9.00;99.90
5881;DHT22;2966;52.598;10.928;2023-04-25T12:39:05;8.90;99.90
5881;DHT22;2966;52.598;10.928;2023-04-25T12:41:33;8.80;99.90
5881;DHT22;2966;52.598;10.928;2023-04-25T12:44:00;8.60;99.90
5881;DHT22;2966;52.598;10.928;2023-04-25T12:46:27;8.50;99.90
5881;DHT22;2966;52.598;10.928;2023-04-25T12:48:54;8.40;99.90
5881;DHT22;2966;52.598;10.928;2023-04-25T12:51:22;8.30;99.90
5881;DHT22;2966;52.598;10.928;2023-04-25T12:53:51;8.30;99.90
5881;DHT22;2966;52.598;10.928;2023-04-25T12:56:18;8.30;99.90
5881;DHT22;2966;52.598;10.928;2023-04-25T12:58:48;8.40;99.90
5881;DHT22;2966;52.598;10.928;2023-04-25T13:01:15;8.50;99.90
5881;DHT22;2966;52.598;10.928;2023-04-25T13:03:42;8.60;99.90
5881;DHT22;2966;52.598;10.928;2023-04-25T13:06:09;8.80;99.90
5881;DHT22;2966;52.598;10.928;2023-04-25T13:08:38;8.90;99.90
5881;DHT22;2966;52.598;10.928;2023-04-25T13:11:10;9.30;99.90
5881;DHT22;2966;52.598;10.928;2023-04-25T13:13:38;9.60;99.90
5881;DHT22;2966;52.598;10.928;2023-04-25T13:16:06;10.10;99.90
5881;DHT22;2966;52.598;10.928;2023-04-25T13:18:34;10.30;99.90
5881;DHT22;2966;52.598;10.928;2023-04-25T13:21:01;10.20;99.90
5881;DHT22;2966;52.598;10.928;2023-04-25T13:23:31;10.60;99.90
5881;DHT22;2966;52.598;10.928;2023-04-25T13:25:58;10.60;99.90
5881;DHT22;2966;52.598;10.928;2023-04-25T13:28:28;10.10;99.90
5881;DHT22;2966;52.598;10.928;2023-04-25T13:30:55;10.00;99.90
5881;DHT22;2966;52.598;10.928;2023-04-25T13:33:21;9.90;99.90
5881;DHT22;2966;52.598;10.928;2023-04-25T13:35:49;9.80;99.90
5881;DHT22;2966;52.598;10.928;2023-04-25T13:38:20;9.70;99.90
5881;DHT22;2966;52.598;10.928;2023-04-25T13:40:47;9.70;99.90
5881;DHT22;2966;52.598;10.928;2023-04-25T13:43:13;9.60;99.90
5881;DHT22;2966;52.598;10.928;2023-04-25T13:45:41;9.50;99.90
5881;DHT22;2966;52.598;10.928;2023-04-25T13:48:08;9.20;99.90
5881;DHT22;2966;52.598;10.928;2023-04-25T13:50:35;9.10;99.90
5881;DHT22;2966;52.598;10.928;2023-04-25T13:53:02;8.90;99.90
5881;DHT22;2966;52.598;10.928;2023-04-25T13:55:28;8.80;99.90
5881;DHT22;2966;52.598;10.928;2023-04-25T13:57:55;8.70;99.90
5881;DHT22;2966;52.598;10.928;2023-04-25T14:00:22;8.60;99.90
5881;DHT22;2966;52.598;10.928;2023-04-25T14:02:50;8.50;99.90
5881;DHT22;2966;52.598;10.928;2023-04-25T14:05:17;8.40;99.90
5881;DHT22;2966;52.598;10.928;2023-04-25T14:07:43;8.30;99.90
5881;DHT22;2966;52.598;10.928;2023-04-25T14:10:10;8.20;99.90
5881;DHT22;2966;52.598;10.928;2023-04-25T14:12:37;8.00;99.90
5881;DHT22;2966;52.598;10.928;2023-04-25T14:15:04;7.90;99.90
5881;DHT22;2966;52.598;10.928;2023-04-25T14:17:31;7.80;99.90
5881;DHT22;2966;52.598;10.928;2023-04-25T14:19:59;7.80;99.90
5881;DHT22;2966;52.598;10.928;2023-04-25T14:22:26;7.80;99.90
5881;DHT22;2966;52.598;10.928;2023-04-25T14:24:53;7.80;99.90
5881;DHT22;2966;52.598;10.928;2023-04-25T14:27:20;7.80;99.90
5881;DHT22;2966;52.598;10.928;2023-04-25T14:29:46;7.80;99.90
5881;DHT22;2966;52.598;10.928;2023-04-25T14:32:16;8.00;99.90
5881;DHT22;2966;52.598;10.928;2023-04-25T14:34:42;8.70;99.90
5881;DHT22;2966;52.598;10.928;2023-04-25T14:37:10;9.40;99.90
5881;DHT22;2966;52.598;10.928;2023-04-25T14:39:40;9.20;99.90
5881;DHT22;2966;52.598;10.928;2023-04-25T14:42:07;8.70;99.90
5881;DHT22;2966;52.598;10.928;2023-04-25T14:44:35;8.60;99.90
5881;DHT22;2966;52.598;10.928;2023-04-25T14:47:02;8.60;99.90
5881;DHT22;2966;52.598;10.928;2023-04-25T14:49:29;8.60;99.90
5881;DHT22;2966;52.598;10.928;2023-04-25T14:51:56;8.70;99.90
5881;DHT22;2966;52.598;10.928;2023-04-25T14:54:24;8.90;99.90
5881;DHT22;2966;52.598;10.928;2023-04-25T14:56:50;8.90;99.90
5881;DHT22;2966;52.598;10.928;2023-04-25T14:59:17;9.10;99.90
5881;DHT22;2966;52.598;10.928;2023-04-25T15:01:45;9.10;99.90
5881;DHT22;2966;52.598;10.928;2023-04-25T15:04:12;9.60;99.90
5881;DHT22;2966;52.598;10.928;2023-04-25T15:06:39;9.70;99.90
5881;DHT22;2966;52.598;10.928;2023-04-25T15:09:06;9.50;99.90
5881;DHT22;2966;52.598;10.928;2023-04-25T15:11:35;9.60;99.90
5881;DHT22;2966;52.598;10.928;2023-04-25T15:14:01;9.80;99.90
5881;DHT22;2966;52.598;10.928;2023-04-25T15:16:28;9.60;99.90
5881;DHT22;2966;52.598;10.928;2023-04-25T15:18:56;9.20;99.90
5881;DHT22;2966;52.598;10.928;2023-04-25T15:21:23;9.00;99.90
5881;DHT22;2966;52.598;10.928;2023-04-25T15:23:50;9.20;99.90
5881;DHT22;2966;52.598;10.928;2023-04-25T15:26:17;9.40;99.90
5881;DHT22;2966;52.598;10.928;2023-04-25T15:28:46;9.30;99.90
5881;DHT22;2966;52.598;10.928;2023-04-25T15:31:13;9.10;99.90
5881;DHT22;2966;52.598;10.928;2023-04-25T15:33:40;8.80;99.90
5881;DHT22;2966;52.598;10.928;2023-04-25T15:36:07;8.80;99.90
5881;DHT22;2966;52.598;10.928;2023-04-25T15:38:38;8.80;99.90
5881;DHT22;2966;52.598;10.928;2023-04-25T15:41:04;8.90;99.90
5881;DHT22;2966;52.598;10.928;2023-04-25T15:43:31;9.30;99.90
5881;DHT22;2966;52.598;10.928;2023-04-25T15:46:02;9.70;99.90
5881;DHT22;2966;52.598;10.928;2023-04-25T15:48:29;9.80;99.90
5881;DHT22;2966;52.598;10.928;2023-04-25T15:50:56;9.80;99.90
5881;DHT22;2966;52.598;10.928;2023-04-25T15:53:23;9.70;99.90
5881;DHT22;2966;52.598;10.928;2023-04-25T15:55:50;9.30;99.90
5881;DHT22;2966;52.598;10.928;2023-04-25T15:58:17;9.20;99.90
5881;DHT22;2966;52.598;10.928;2023-04-25T16:00:44;9.10;99.90
5881;DHT22;2966;52.598;10.928;2023-04-25T16:03:14;9.10;99.90